createdAt,value
2019-04-22T00:02:03.840Z,36.30
2019-04-22T00:06:24.193Z,35.70
2019-04-22T00:10:43.582Z,35.40
2019-04-22T00:14:35.065Z,35.80
2019-04-22T00:19:01.378Z,35.50
2019-04-22T00:22:51.130Z,35.40
2019-04-22T00:26:59.489Z,35.20
2019-04-22T00:31:08.878Z,35.40
2019-04-22T00:35:11.311Z,35.40
2019-04-22T00:39:28.338Z,34.90
2019-04-22T00:43:34.961Z,34.80
2019-04-22T00:47:32.433Z,35.10
2019-04-22T00:51:44.916Z,35.00
2019-04-22T00:56:07.491Z,34.80
2019-04-22T01:00:11.690Z,34.80
2019-04-22T01:04:21.045Z,35.00
2019-04-22T01:08:26.683Z,35.10
2019-04-22T01:12:37.436Z,34.60
2019-04-22T01:16:35.657Z,34.90
2019-04-22T01:21:00.478Z,34.70
2019-04-22T01:24:45.917Z,34.60
2019-04-22T01:28:46.115Z,34.80
2019-04-22T01:32:41.830Z,34.80
2019-04-22T01:37:03.493Z,34.50
2019-04-22T01:41:16.393Z,34.70
2019-04-22T01:45:17.792Z,34.60
2019-04-22T01:49:21.479Z,34.60
2019-04-22T01:53:33.497Z,34.60
2019-04-22T01:57:28.400Z,34.90
2019-04-22T02:01:48.426Z,34.30
2019-04-22T02:05:46.849Z,34.50
2019-04-22T02:13:56.598Z,34.30
2019-04-22T02:18:11.597Z,34.60
2019-04-22T02:22:07.335Z,34.50
2019-04-22T02:26:22.819Z,34.60
2019-04-22T02:30:24.445Z,34.50
2019-04-22T02:42:32.414Z,34.50
2019-04-22T02:46:58.964Z,34.60
2019-04-22T02:51:02.531Z,34.60
2019-04-22T02:55:23.105Z,34.90
2019-04-22T02:59:11.607Z,34.70
2019-04-22T03:07:20.848Z,35.00
2019-04-22T03:11:33.862Z,35.60
2019-04-22T03:15:29.901Z,36.00
2019-04-22T03:19:57.570Z,35.90
2019-04-22T03:36:29.569Z,35.40
2019-04-22T03:48:17.630Z,36.00
2019-04-22T03:52:20.600Z,35.90
2019-04-22T03:57:07.125Z,36.00
2019-04-22T04:04:45.157Z,36.00
2019-04-22T04:08:53.367Z,36.70
2019-04-22T04:13:04.214Z,36.30
2019-04-22T04:17:04.182Z,35.90
2019-04-22T04:37:42.548Z,36.10
2019-04-22T04:41:34.350Z,35.80
2019-04-22T04:45:44.862Z,35.40
2019-04-22T04:54:08.710Z,35.70
2019-04-22T04:58:10.224Z,35.30
2019-04-22T05:02:06.324Z,35.60
2019-04-22T05:06:07.492Z,35.20
2019-04-22T05:10:29.326Z,35.00
2019-04-22T05:14:24.282Z,35.10
2019-04-22T05:18:41.189Z,35.20
2019-04-22T05:22:34.090Z,35.80
2019-04-22T05:26:41.030Z,35.80
2019-04-22T05:34:48.761Z,34.90
2019-04-22T05:38:53.512Z,35.00
2019-04-22T05:43:02.534Z,34.90
2019-04-22T05:47:09.947Z,34.40
2019-04-22T05:51:21.723Z,33.60
2019-04-22T05:55:28.512Z,33.00
2019-04-22T05:59:44.551Z,32.80
2019-04-22T06:03:46.527Z,32.30
2019-04-22T06:07:57.420Z,31.40
2019-04-22T06:12:05.021Z,32.30
2019-04-22T06:16:30.823Z,31.20
2019-04-22T06:20:40.333Z,30.20
2019-04-22T06:24:42.357Z,30.30
2019-04-22T06:33:01.165Z,30.50
2019-04-22T06:37:11.938Z,30.10
2019-04-22T06:41:11.393Z,30.50
2019-04-22T06:45:21.892Z,30.10
2019-04-22T06:49:33.301Z,30.00
2019-04-22T06:53:48.085Z,29.50
2019-04-22T06:57:51.177Z,29.30
2019-04-22T07:02:11.646Z,29.20
2019-04-22T07:06:23.986Z,29.60
2019-04-22T07:14:22.829Z,28.70
2019-04-22T07:22:41.848Z,27.90
2019-04-22T07:26:49.203Z,27.80
2019-04-22T07:30:54.610Z,27.90
2019-04-22T07:35:25.404Z,28.30
2019-04-22T07:39:09.736Z,28.40
2019-04-22T07:43:19.971Z,27.70
2019-04-22T07:47:25.336Z,27.80
2019-04-22T07:51:28.171Z,27.90
2019-04-22T07:55:39.732Z,27.20
2019-04-22T08:00:05.468Z,26.40
2019-04-22T08:08:01.107Z,26.60
2019-04-22T08:12:29.647Z,25.30
2019-04-22T08:16:10.723Z,25.10
2019-04-22T08:20:19.014Z,25.00
2019-04-22T08:24:29.310Z,25.00
2019-04-22T08:28:41.310Z,25.10
2019-04-22T08:32:47.403Z,25.20
2019-04-22T08:37:15.158Z,25.50
2019-04-22T08:45:26.716Z,24.70
2019-04-22T08:49:39.693Z,25.30
2019-04-22T08:53:37.568Z,25.20
2019-04-22T08:57:55.054Z,25.20
2019-04-22T09:01:40.808Z,25.30
2019-04-22T09:06:02.439Z,26.20
2019-04-22T09:09:50.689Z,25.20
2019-04-22T09:14:08.834Z,24.00
2019-04-22T09:18:08.643Z,25.10
2019-04-22T09:22:16.018Z,23.00
2019-04-22T09:26:17.787Z,22.30
2019-04-22T09:30:21.680Z,22.70
2019-04-22T09:34:29.780Z,22.80
2019-04-22T09:38:37.804Z,22.20
2019-04-22T09:42:45.458Z,22.50
2019-04-22T09:46:51.947Z,22.50
2019-04-22T09:50:58.918Z,20.10
2019-04-22T09:55:12.761Z,19.80
2019-04-22T09:59:14.025Z,19.10
2019-04-22T10:03:19.909Z,20.20
2019-04-22T10:07:27.578Z,19.60
2019-04-22T10:15:35.248Z,17.30
2019-04-22T10:19:38.741Z,17.30
2019-04-22T10:23:45.398Z,17.30
2019-04-22T10:27:55.289Z,17.30
2019-04-22T10:31:57.115Z,16.60
2019-04-22T10:35:34.541Z,17.30
2019-04-22T10:39:51.361Z,16.80
2019-04-22T10:43:47.646Z,16.00
2019-04-22T10:47:52.241Z,14.60
2019-04-22T10:51:55.412Z,15.40
2019-04-22T10:56:03.029Z,14.60
2019-04-22T11:00:07.000Z,14.80
2019-04-22T11:04:11.192Z,14.60
2019-04-22T11:08:32.227Z,14.70
2019-04-22T11:12:31.986Z,14.50
2019-04-22T11:16:37.277Z,14.60
2019-04-22T11:20:41.836Z,14.00
2019-04-22T11:24:46.718Z,14.20
2019-04-22T11:28:49.949Z,14.40
2019-04-22T11:32:54.235Z,13.50
2019-04-22T11:36:58.880Z,12.60
2019-04-22T11:41:03.490Z,12.90
2019-04-22T11:45:11.007Z,12.60
2019-04-22T11:49:14.295Z,12.80
2019-04-22T11:53:18.555Z,12.70
2019-04-22T11:57:23.240Z,11.80
2019-04-22T12:01:26.942Z,12.30
2019-04-22T12:05:30.189Z,12.20
2019-04-22T12:09:39.776Z,12.80
2019-04-22T12:13:44.120Z,12.20
2019-04-22T12:17:48.889Z,12.20
2019-04-22T12:21:53.171Z,12.40
2019-04-22T12:26:05.776Z,12.60
2019-04-22T12:30:11.713Z,11.40
2019-04-22T12:34:15.539Z,12.00
2019-04-22T12:38:20.321Z,11.40
2019-04-22T12:42:23.680Z,12.10
2019-04-22T12:46:28.062Z,12.30
2019-04-22T12:50:38.720Z,11.60
2019-04-22T12:54:39.394Z,12.50
2019-04-22T12:58:51.750Z,12.50
2019-04-22T13:02:54.858Z,13.00
2019-04-22T13:07:01.827Z,12.70
2019-04-22T13:11:11.786Z,12.20
2019-04-22T13:15:15.888Z,11.90
2019-04-22T13:19:21.006Z,12.10
2019-04-22T13:23:25.443Z,13.60
2019-04-22T13:27:29.053Z,13.50
2019-04-22T13:31:33.036Z,12.80
2019-04-22T13:35:36.267Z,12.80
2019-04-22T13:39:39.669Z,12.50
2019-04-22T13:43:45.005Z,12.50
2019-04-22T13:48:08.678Z,12.60
2019-04-22T13:52:31.964Z,12.80
2019-04-22T13:56:19.085Z,13.30
2019-04-22T14:00:06.502Z,12.10
2019-04-22T14:04:16.137Z,12.50
2019-04-22T14:08:19.949Z,12.20
2019-04-22T14:12:24.238Z,12.00
2019-04-22T14:16:28.878Z,12.50
2019-04-22T14:20:33.074Z,12.20
2019-04-22T14:24:38.476Z,11.80
2019-04-22T14:28:41.793Z,11.20
2019-04-22T14:32:45.780Z,11.90
2019-04-22T14:36:48.885Z,11.80
2019-04-22T14:40:52.049Z,11.50
2019-04-22T14:49:30.097Z,12.20
2019-04-22T14:53:36.589Z,12.00
2019-04-22T14:57:19.315Z,12.60
2019-04-22T15:01:22.489Z,12.90
2019-04-22T15:05:26.092Z,14.40
2019-04-22T15:09:30.096Z,15.40
2019-04-22T15:13:39.137Z,16.30
2019-04-22T15:17:52.396Z,15.70
2019-04-22T15:21:56.653Z,16.50
2019-04-22T15:26:06.534Z,16.00
2019-04-22T15:30:12.652Z,16.20
2019-04-22T15:34:16.368Z,16.50
2019-04-22T15:38:22.806Z,16.60
2019-04-22T15:42:28.730Z,16.70
2019-04-22T15:46:30.096Z,17.60
2019-04-22T15:50:33.229Z,16.90
2019-04-22T15:54:37.509Z,17.00
2019-04-22T15:58:41.869Z,17.00
2019-04-22T16:02:45.735Z,16.60
2019-04-22T16:06:49.422Z,17.00
2019-04-22T16:10:53.687Z,16.60
2019-04-22T16:14:59.325Z,16.90
2019-04-22T16:19:06.804Z,17.70
2019-04-22T16:23:44.731Z,17.30
2019-04-22T16:27:50.450Z,17.70
2019-04-22T16:31:53.504Z,18.10
2019-04-22T16:35:58.507Z,18.00
2019-04-22T16:40:03.060Z,18.50
2019-04-22T16:44:06.964Z,18.80
2019-04-22T16:48:15.979Z,19.30
2019-04-22T16:52:21.914Z,19.20
2019-04-22T16:56:25.047Z,19.50
2019-04-22T17:00:28.931Z,20.10
2019-04-22T17:04:53.777Z,20.20
2019-04-22T17:08:57.133Z,20.10
2019-04-22T17:13:06.144Z,20.90
2019-04-22T17:17:06.559Z,20.90
2019-04-22T17:21:11.029Z,21.20
2019-04-22T17:25:18.295Z,21.30
2019-04-22T17:29:22.771Z,21.80
2019-04-22T17:33:28.870Z,22.00
2019-04-22T17:37:35.502Z,22.10
2019-04-22T17:41:55.290Z,22.40
2019-04-22T17:46:36.128Z,22.70
2019-04-22T17:50:53.890Z,22.80
2019-04-22T17:55:00.453Z,22.80
2019-04-22T17:59:11.723Z,23.20
2019-04-22T18:03:08.522Z,23.50
2019-04-22T18:07:29.571Z,24.00
2019-04-22T18:11:33.377Z,24.00
2019-04-22T18:15:40.448Z,24.10
2019-04-22T18:19:39.911Z,24.60
2019-04-22T18:23:31.036Z,24.50
2019-04-22T18:27:59.846Z,24.90
2019-04-22T18:31:47.613Z,24.90
2019-04-22T18:36:01.133Z,25.70
2019-04-22T18:40:15.098Z,26.10
2019-04-22T18:44:23.555Z,26.40
2019-04-22T18:48:27.211Z,26.80
2019-04-22T18:53:12.401Z,27.00
2019-04-22T18:57:13.791Z,27.10
2019-04-22T19:01:01.820Z,27.40
2019-04-22T19:05:19.154Z,27.90
2019-04-22T19:09:45.662Z,28.10
2019-04-22T19:18:04.225Z,27.30
2019-04-22T19:22:02.593Z,27.50
2019-04-22T19:26:07.136Z,27.30
2019-04-22T19:30:14.306Z,27.00
2019-04-22T19:34:20.885Z,27.00
2019-04-22T19:38:14.075Z,27.20
2019-04-22T19:42:38.218Z,26.90
2019-04-22T19:46:35.455Z,26.90
2019-04-22T19:50:52.939Z,27.10
2019-04-22T19:54:55.279Z,27.10
2019-04-22T19:58:56.273Z,26.80
2019-04-22T20:03:36.279Z,26.80
2019-04-22T20:07:41.444Z,27.10
2019-04-22T20:11:49.880Z,27.30
2019-04-22T20:15:45.949Z,27.20
2019-04-22T20:20:04.274Z,27.10
2019-04-22T20:24:01.335Z,27.20
2019-04-22T20:28:19.386Z,27.20
2019-04-22T20:32:21.820Z,27.20
2019-04-22T20:36:53.103Z,27.50
2019-04-22T20:40:39.753Z,27.60
2019-04-22T20:44:52.262Z,27.50
2019-04-22T20:48:54.959Z,27.90
2019-04-22T20:53:07.255Z,27.90
2019-04-22T20:57:07.359Z,27.80
2019-04-22T21:01:06.464Z,28.00
2019-04-22T21:05:14.025Z,28.20
2019-04-22T21:09:28.489Z,28.20
2019-04-22T21:13:24.508Z,28.40
2019-04-22T21:17:40.081Z,28.50
2019-04-22T21:21:45.649Z,28.50
2019-04-22T21:25:39.595Z,28.40
2019-04-22T21:29:50.740Z,28.60
2019-04-22T21:33:55.791Z,29.10
2019-04-22T21:38:08.400Z,29.00
2019-04-22T21:42:09.171Z,30.00
2019-04-22T21:46:11.958Z,29.70
2019-04-22T21:50:37.589Z,29.80
2019-04-22T21:54:27.889Z,29.70
2019-04-22T21:58:51.131Z,30.00
2019-04-22T22:02:58.546Z,30.10
2019-04-22T22:06:51.210Z,30.20
2019-04-22T22:11:08.175Z,30.40
2019-04-22T22:15:13.487Z,30.60
2019-04-22T22:19:20.906Z,30.80
2019-04-22T22:23:31.798Z,31.00
2019-04-22T22:27:31.154Z,31.20
2019-04-22T22:31:40.103Z,31.30
2019-04-22T22:35:36.149Z,31.40
2019-04-22T22:39:36.641Z,31.90
2019-04-22T22:43:34.960Z,33.20
2019-04-22T22:47:55.806Z,32.60
2019-04-22T22:52:24.806Z,32.90
2019-04-22T22:56:05.078Z,33.20
2019-04-22T23:00:11.099Z,33.60
2019-04-22T23:04:21.145Z,33.70
2019-04-22T23:08:25.734Z,34.10
2019-04-22T23:12:46.559Z,34.10
2019-04-22T23:16:31.623Z,34.40
2019-04-22T23:20:28.916Z,34.40
2019-04-22T23:25:14.879Z,34.90
2019-04-22T23:29:26.997Z,35.20
2019-04-22T23:33:42.527Z,35.40
2019-04-22T23:37:47.594Z,35.50
2019-04-22T23:41:58.718Z,35.90
2019-04-22T23:46:02.421Z,36.10
2019-04-22T23:50:18.205Z,35.90
2019-04-22T23:54:13.262Z,36.60
2019-04-22T23:58:21.048Z,36.80
